sensor_id;sensor_type;location;lat;lon;timestamp;P1;durP1;ratioP1;P2;durP2;ratioP2
12715;SDS011;6422;49.938;9.124;2022-07-06T00:01:31;35.60;;;2.17;;
12715;SDS011;6422;49.938;9.124;2022-07-06T00:03:56;41.10;;;2.30;;
12715;SDS011;6422;49.938;9.124;2022-07-06T00:06:21;36.13;;;2.50;;
12715;SDS011;6422;49.938;9.124;2022-07-06T00:08:46;35.17;;;1.93;;
12715;SDS011;6422;49.938;9.124;2022-07-06T00:11:12;35.37;;;1.73;;
12715;SDS011;6422;49.938;9.124;2022-07-06T00:13:37;35.42;;;2.38;;
12715;SDS011;6422;49.938;9.124;2022-07-06T00:16:02;36.20;;;2.17;;
12715;SDS011;6422;49.938;9.124;2022-07-06T00:18:27;36.03;;;2.50;;
12715;SDS011;6422;49.938;9.124;2022-07-06T00:20:52;39.05;;;2.85;;
12715;SDS011;6422;49.938;9.124;2022-07-06T00:23:17;35.93;;;2.40;;
12715;SDS011;6422;49.938;9.124;2022-07-06T00:25:43;37.00;;;2.10;;
12715;SDS011;6422;49.938;9.124;2022-07-06T00:28:08;36.23;;;2.30;;
12715;SDS011;6422;49.938;9.124;2022-07-06T00:30:33;38.33;;;2.00;;
12715;SDS011;6422;49.938;9.124;2022-07-06T00:32:58;46.30;;;2.20;;
12715;SDS011;6422;49.938;9.124;2022-07-06T00:35:24;38.70;;;2.27;;
12715;SDS011;6422;49.938;9.124;2022-07-06T00:37:49;36.47;;;2.53;;
12715;SDS011;6422;49.938;9.124;2022-07-06T00:40:14;37.27;;;2.73;;
12715;SDS011;6422;49.938;9.124;2022-07-06T00:42:43;35.88;;;2.75;;
12715;SDS011;6422;49.938;9.124;2022-07-06T00:45:09;36.80;;;3.10;;
12715;SDS011;6422;49.938;9.124;2022-07-06T00:47:34;36.87;;;3.10;;
12715;SDS011;6422;49.938;9.124;2022-07-06T00:49:59;39.63;;;3.67;;
12715;SDS011;6422;49.938;9.124;2022-07-06T00:52:40;39.77;;;4.80;;
12715;SDS011;6422;49.938;9.124;2022-07-06T00:55:06;43.03;;;4.10;;
12715;SDS011;6422;49.938;9.124;2022-07-06T00:57:32;38.73;;;4.13;;
12715;SDS011;6422;49.938;9.124;2022-07-06T00:59:57;39.00;;;5.10;;
12715;SDS011;6422;49.938;9.124;2022-07-06T01:02:22;38.70;;;3.97;;
12715;SDS011;6422;49.938;9.124;2022-07-06T01:04:48;39.07;;;4.23;;
12715;SDS011;6422;49.938;9.124;2022-07-06T01:07:13;37.77;;;3.20;;
12715;SDS011;6422;49.938;9.124;2022-07-06T01:09:38;36.92;;;3.22;;
12715;SDS011;6422;49.938;9.124;2022-07-06T01:12:03;37.57;;;3.73;;
12715;SDS011;6422;49.938;9.124;2022-07-06T01:14:29;38.20;;;4.17;;
12715;SDS011;6422;49.938;9.124;2022-07-06T01:16:54;38.53;;;4.20;;
12715;SDS011;6422;49.938;9.124;2022-07-06T01:19:20;39.70;;;4.57;;
12715;SDS011;6422;49.938;9.124;2022-07-06T01:21:45;38.72;;;3.75;;
12715;SDS011;6422;49.938;9.124;2022-07-06T01:24:10;39.27;;;4.87;;
12715;SDS011;6422;49.938;9.124;2022-07-06T01:26:36;38.40;;;4.67;;
12715;SDS011;6422;49.938;9.124;2022-07-06T01:29:01;38.77;;;4.40;;
12715;SDS011;6422;49.938;9.124;2022-07-06T01:31:26;39.73;;;4.30;;
12715;SDS011;6422;49.938;9.124;2022-07-06T01:33:52;37.40;;;3.00;;
12715;SDS011;6422;49.938;9.124;2022-07-06T01:36:18;37.17;;;2.83;;
12715;SDS011;6422;49.938;9.124;2022-07-06T01:38:53;36.90;;;2.60;;
12715;SDS011;6422;49.938;9.124;2022-07-06T01:41:19;38.80;;;2.40;;
12715;SDS011;6422;49.938;9.124;2022-07-06T01:43:44;35.90;;;1.87;;
12715;SDS011;6422;49.938;9.124;2022-07-06T01:46:09;37.57;;;2.03;;
12715;SDS011;6422;49.938;9.124;2022-07-06T01:48:35;36.40;;;2.13;;
12715;SDS011;6422;49.938;9.124;2022-07-06T01:51:00;48.50;;;2.07;;
12715;SDS011;6422;49.938;9.124;2022-07-06T01:53:25;36.30;;;2.10;;
12715;SDS011;6422;49.938;9.124;2022-07-06T01:55:50;35.97;;;2.10;;
12715;SDS011;6422;49.938;9.124;2022-07-06T01:58:16;36.20;;;2.20;;
12715;SDS011;6422;49.938;9.124;2022-07-06T02:00:41;35.37;;;2.10;;
12715;SDS011;6422;49.938;9.124;2022-07-06T02:03:06;36.80;;;2.07;;
12715;SDS011;6422;49.938;9.124;2022-07-06T02:05:31;36.13;;;1.85;;
12715;SDS011;6422;49.938;9.124;2022-07-06T02:07:56;35.83;;;2.07;;
12715;SDS011;6422;49.938;9.124;2022-07-06T02:10:21;35.15;;;1.80;;
12715;SDS011;6422;49.938;9.124;2022-07-06T02:12:47;39.93;;;2.40;;
12715;SDS011;6422;49.938;9.124;2022-07-06T02:15:12;38.00;;;2.20;;
12715;SDS011;6422;49.938;9.124;2022-07-06T02:17:37;51.73;;;2.53;;
12715;SDS011;6422;49.938;9.124;2022-07-06T02:20:03;35.90;;;2.00;;
12715;SDS011;6422;49.938;9.124;2022-07-06T02:22:28;35.53;;;2.20;;
12715;SDS011;6422;49.938;9.124;2022-07-06T02:24:54;35.97;;;2.23;;
12715;SDS011;6422;49.938;9.124;2022-07-06T02:27:19;35.80;;;1.70;;
12715;SDS011;6422;49.938;9.124;2022-07-06T02:29:44;37.27;;;2.10;;
12715;SDS011;6422;49.938;9.124;2022-07-06T02:32:09;35.45;;;2.13;;
12715;SDS011;6422;49.938;9.124;2022-07-06T02:34:34;36.77;;;2.60;;
12715;SDS011;6422;49.938;9.124;2022-07-06T02:36:59;36.30;;;2.17;;
12715;SDS011;6422;49.938;9.124;2022-07-06T02:39:25;37.47;;;2.57;;
12715;SDS011;6422;49.938;9.124;2022-07-06T02:41:50;36.73;;;3.10;;
12715;SDS011;6422;49.938;9.124;2022-07-06T02:44:15;36.07;;;2.83;;
12715;SDS011;6422;49.938;9.124;2022-07-06T02:46:41;37.38;;;2.88;;
12715;SDS011;6422;49.938;9.124;2022-07-06T02:49:06;39.22;;;2.97;;
12715;SDS011;6422;49.938;9.124;2022-07-06T02:51:31;48.93;;;3.10;;
12715;SDS011;6422;49.938;9.124;2022-07-06T02:53:56;37.80;;;3.33;;
12715;SDS011;6422;49.938;9.124;2022-07-06T02:56:21;36.42;;;3.58;;
12715;SDS011;6422;49.938;9.124;2022-07-06T02:58:46;37.30;;;3.90;;
12715;SDS011;6422;49.938;9.124;2022-07-06T03:01:11;40.53;;;4.28;;
12715;SDS011;6422;49.938;9.124;2022-07-06T03:03:37;40.17;;;4.63;;
12715;SDS011;6422;49.938;9.124;2022-07-06T03:06:02;36.73;;;4.07;;
12715;SDS011;6422;49.938;9.124;2022-07-06T03:08:27;37.60;;;4.43;;
12715;SDS011;6422;49.938;9.124;2022-07-06T03:10:52;37.30;;;3.50;;
12715;SDS011;6422;49.938;9.124;2022-07-06T03:13:17;36.70;;;3.10;;
12715;SDS011;6422;49.938;9.124;2022-07-06T03:15:42;36.77;;;2.80;;
12715;SDS011;6422;49.938;9.124;2022-07-06T03:18:07;36.08;;;2.60;;
12715;SDS011;6422;49.938;9.124;2022-07-06T03:20:33;36.38;;;2.70;;
12715;SDS011;6422;49.938;9.124;2022-07-06T03:22:58;36.53;;;3.10;;
12715;SDS011;6422;49.938;9.124;2022-07-06T03:25:23;37.50;;;3.47;;
12715;SDS011;6422;49.938;9.124;2022-07-06T03:27:48;39.57;;;4.90;;
12715;SDS011;6422;49.938;9.124;2022-07-06T03:30:13;40.75;;;4.30;;
12715;SDS011;6422;49.938;9.124;2022-07-06T03:32:39;36.97;;;3.97;;
12715;SDS011;6422;49.938;9.124;2022-07-06T03:35:04;40.05;;;6.15;;
12715;SDS011;6422;49.938;9.124;2022-07-06T03:37:30;38.67;;;4.60;;
12715;SDS011;6422;49.938;9.124;2022-07-06T03:39:55;38.07;;;4.20;;
12715;SDS011;6422;49.938;9.124;2022-07-06T03:42:20;38.42;;;5.32;;
12715;SDS011;6422;49.938;9.124;2022-07-06T03:44:45;40.28;;;5.00;;
12715;SDS011;6422;49.938;9.124;2022-07-06T03:47:10;39.30;;;5.70;;
12715;SDS011;6422;49.938;9.124;2022-07-06T03:49:35;38.90;;;4.40;;
12715;SDS011;6422;49.938;9.124;2022-07-06T03:52:01;39.17;;;4.93;;
12715;SDS011;6422;49.938;9.124;2022-07-06T03:54:26;38.87;;;5.00;;
12715;SDS011;6422;49.938;9.124;2022-07-06T03:56:51;37.88;;;4.68;;
12715;SDS011;6422;49.938;9.124;2022-07-06T03:59:16;39.40;;;4.85;;
12715;SDS011;6422;49.938;9.124;2022-07-06T04:01:41;40.60;;;4.70;;
12715;SDS011;6422;49.938;9.124;2022-07-06T04:04:06;38.10;;;4.70;;
12715;SDS011;6422;49.938;9.124;2022-07-06T04:06:32;37.70;;;4.20;;
12715;SDS011;6422;49.938;9.124;2022-07-06T04:08:59;38.33;;;5.10;;
12715;SDS011;6422;49.938;9.124;2022-07-06T04:11:24;39.83;;;6.23;;
12715;SDS011;6422;49.938;9.124;2022-07-06T04:13:49;37.40;;;3.57;;
12715;SDS011;6422;49.938;9.124;2022-07-06T04:16:15;38.72;;;5.05;;
12715;SDS011;6422;49.938;9.124;2022-07-06T04:18:40;37.97;;;4.90;;
12715;SDS011;6422;49.938;9.124;2022-07-06T04:21:05;38.67;;;5.10;;
12715;SDS011;6422;49.938;9.124;2022-07-06T04:23:30;38.90;;;5.73;;
12715;SDS011;6422;49.938;9.124;2022-07-06T04:25:55;39.77;;;4.77;;
12715;SDS011;6422;49.938;9.124;2022-07-06T04:28:20;36.70;;;4.43;;
12715;SDS011;6422;49.938;9.124;2022-07-06T04:30:46;37.22;;;3.35;;
12715;SDS011;6422;49.938;9.124;2022-07-06T04:33:12;37.07;;;3.53;;
12715;SDS011;6422;49.938;9.124;2022-07-06T04:35:37;37.20;;;2.60;;
12715;SDS011;6422;49.938;9.124;2022-07-06T04:38:02;35.90;;;2.17;;
12715;SDS011;6422;49.938;9.124;2022-07-06T04:40:27;35.83;;;2.60;;
12715;SDS011;6422;49.938;9.124;2022-07-06T04:42:53;38.13;;;3.05;;
12715;SDS011;6422;49.938;9.124;2022-07-06T04:45:18;35.70;;;2.10;;
12715;SDS011;6422;49.938;9.124;2022-07-06T04:47:43;35.50;;;1.80;;
12715;SDS011;6422;49.938;9.124;2022-07-06T04:50:09;36.10;;;2.03;;
12715;SDS011;6422;49.938;9.124;2022-07-06T04:52:34;36.00;;;2.67;;
12715;SDS011;6422;49.938;9.124;2022-07-06T04:54:59;37.40;;;2.37;;
12715;SDS011;6422;49.938;9.124;2022-07-06T04:57:24;37.17;;;2.30;;
12715;SDS011;6422;49.938;9.124;2022-07-06T04:59:54;35.87;;;2.10;;
12715;SDS011;6422;49.938;9.124;2022-07-06T05:02:19;35.30;;;1.63;;
12715;SDS011;6422;49.938;9.124;2022-07-06T05:04:45;35.63;;;1.80;;
12715;SDS011;6422;49.938;9.124;2022-07-06T05:07:10;37.00;;;1.97;;
12715;SDS011;6422;49.938;9.124;2022-07-06T05:09:35;35.10;;;1.87;;
12715;SDS011;6422;49.938;9.124;2022-07-06T05:12:00;38.15;;;2.15;;
12715;SDS011;6422;49.938;9.124;2022-07-06T05:14:25;35.20;;;2.00;;
12715;SDS011;6422;49.938;9.124;2022-07-06T05:16:51;35.83;;;1.80;;
12715;SDS011;6422;49.938;9.124;2022-07-06T05:19:16;40.07;;;2.50;;
12715;SDS011;6422;49.938;9.124;2022-07-06T05:21:41;38.13;;;2.57;;
12715;SDS011;6422;49.938;9.124;2022-07-06T05:24:06;38.33;;;1.77;;
12715;SDS011;6422;49.938;9.124;2022-07-06T05:26:32;35.30;;;1.67;;
12715;SDS011;6422;49.938;9.124;2022-07-06T05:28:57;36.47;;;2.10;;
12715;SDS011;6422;49.938;9.124;2022-07-06T05:31:22;36.53;;;1.85;;
12715;SDS011;6422;49.938;9.124;2022-07-06T05:33:47;36.30;;;1.80;;
12715;SDS011;6422;49.938;9.124;2022-07-06T05:36:12;35.20;;;1.70;;
12715;SDS011;6422;49.938;9.124;2022-07-06T05:38:38;36.00;;;2.23;;
12715;SDS011;6422;49.938;9.124;2022-07-06T05:41:03;34.90;;;2.00;;
12715;SDS011;6422;49.938;9.124;2022-07-06T05:43:28;41.20;;;2.00;;
12715;SDS011;6422;49.938;9.124;2022-07-06T05:45:53;34.97;;;1.50;;
12715;SDS011;6422;49.938;9.124;2022-07-06T05:48:18;37.07;;;1.77;;
12715;SDS011;6422;49.938;9.124;2022-07-06T05:51:02;37.40;;;1.53;;
12715;SDS011;6422;49.938;9.124;2022-07-06T05:53:27;36.30;;;2.33;;
12715;SDS011;6422;49.938;9.124;2022-07-06T05:55:53;34.43;;;1.53;;
12715;SDS011;6422;49.938;9.124;2022-07-06T05:58:18;35.30;;;1.67;;
12715;SDS011;6422;49.938;9.124;2022-07-06T06:00:43;35.83;;;2.10;;
12715;SDS011;6422;49.938;9.124;2022-07-06T06:03:08;34.87;;;1.57;;
12715;SDS011;6422;49.938;9.124;2022-07-06T06:05:33;36.30;;;1.50;;
12715;SDS011;6422;49.938;9.124;2022-07-06T06:07:59;36.97;;;2.70;;
12715;SDS011;6422;49.938;9.124;2022-07-06T06:10:24;35.37;;;1.40;;
12715;SDS011;6422;49.938;9.124;2022-07-06T06:12:49;35.00;;;1.60;;
12715;SDS011;6422;49.938;9.124;2022-07-06T06:15:15;38.00;;;2.30;;
12715;SDS011;6422;49.938;9.124;2022-07-06T06:17:40;35.90;;;2.10;;
12715;SDS011;6422;49.938;9.124;2022-07-06T06:20:09;34.30;;;1.50;;
12715;SDS011;6422;49.938;9.124;2022-07-06T06:22:47;40.43;;;1.93;;
12715;SDS011;6422;49.938;9.124;2022-07-06T06:25:14;35.07;;;1.73;;
12715;SDS011;6422;49.938;9.124;2022-07-06T06:27:39;35.73;;;1.90;;
12715;SDS011;6422;49.938;9.124;2022-07-06T06:30:05;44.83;;;2.17;;
12715;SDS011;6422;49.938;9.124;2022-07-06T06:32:30;34.87;;;1.63;;
12715;SDS011;6422;49.938;9.124;2022-07-06T06:34:55;34.85;;;1.90;;
12715;SDS011;6422;49.938;9.124;2022-07-06T06:37:20;34.50;;;1.30;;
12715;SDS011;6422;49.938;9.124;2022-07-06T06:39:45;35.57;;;1.83;;
12715;SDS011;6422;49.938;9.124;2022-07-06T06:42:11;36.90;;;1.97;;
12715;SDS011;6422;49.938;9.124;2022-07-06T06:44:36;34.50;;;1.43;;
12715;SDS011;6422;49.938;9.124;2022-07-06T06:47:01;37.95;;;1.83;;
12715;SDS011;6422;49.938;9.124;2022-07-06T06:49:26;34.20;;;1.70;;
12715;SDS011;6422;49.938;9.124;2022-07-06T06:51:51;38.10;;;2.17;;
12715;SDS011;6422;49.938;9.124;2022-07-06T06:54:17;35.33;;;1.63;;
12715;SDS011;6422;49.938;9.124;2022-07-06T06:56:42;37.77;;;1.90;;
12715;SDS011;6422;49.938;9.124;2022-07-06T06:59:07;34.63;;;1.40;;
12715;SDS011;6422;49.938;9.124;2022-07-06T07:01:32;36.50;;;2.20;;
12715;SDS011;6422;49.938;9.124;2022-07-06T07:03:57;44.30;;;1.90;;
12715;SDS011;6422;49.938;9.124;2022-07-06T07:06:23;45.83;;;1.60;;
12715;SDS011;6422;49.938;9.124;2022-07-06T07:08:48;37.80;;;1.87;;
12715;SDS011;6422;49.938;9.124;2022-07-06T07:11:13;40.40;;;2.25;;
12715;SDS011;6422;49.938;9.124;2022-07-06T07:13:38;36.30;;;1.40;;
12715;SDS011;6422;49.938;9.124;2022-07-06T07:16:03;44.03;;;1.70;;
12715;SDS011;6422;49.938;9.124;2022-07-06T07:18:29;36.20;;;2.00;;
12715;SDS011;6422;49.938;9.124;2022-07-06T07:20:54;35.90;;;1.40;;
12715;SDS011;6422;49.938;9.124;2022-07-06T07:23:19;35.13;;;1.90;;
12715;SDS011;6422;49.938;9.124;2022-07-06T07:25:44;34.85;;;1.45;;
12715;SDS011;6422;49.938;9.124;2022-07-06T07:28:09;38.17;;;2.03;;
12715;SDS011;6422;49.938;9.124;2022-07-06T07:30:35;36.50;;;1.40;;
12715;SDS011;6422;49.938;9.124;2022-07-06T07:33:00;34.87;;;1.30;;
12715;SDS011;6422;49.938;9.124;2022-07-06T07:35:26;36.60;;;1.60;;
12715;SDS011;6422;49.938;9.124;2022-07-06T07:37:51;34.90;;;1.50;;
12715;SDS011;6422;49.938;9.124;2022-07-06T07:40:16;36.50;;;1.53;;
12715;SDS011;6422;49.938;9.124;2022-07-06T07:42:41;35.27;;;1.70;;
12715;SDS011;6422;49.938;9.124;2022-07-06T07:45:08;37.67;;;1.80;;
12715;SDS011;6422;49.938;9.124;2022-07-06T07:47:33;37.20;;;1.40;;
12715;SDS011;6422;49.938;9.124;2022-07-06T07:49:59;34.17;;;1.20;;
12715;SDS011;6422;49.938;9.124;2022-07-06T07:52:24;34.60;;;1.20;;
12715;SDS011;6422;49.938;9.124;2022-07-06T07:54:49;34.47;;;1.30;;
12715;SDS011;6422;49.938;9.124;2022-07-06T07:57:14;39.40;;;1.40;;
12715;SDS011;6422;49.938;9.124;2022-07-06T07:59:40;35.60;;;1.40;;
12715;SDS011;6422;49.938;9.124;2022-07-06T08:02:07;36.37;;;1.90;;
12715;SDS011;6422;49.938;9.124;2022-07-06T08:04:32;35.10;;;1.40;;
12715;SDS011;6422;49.938;9.124;2022-07-06T08:06:57;35.10;;;1.65;;
12715;SDS011;6422;49.938;9.124;2022-07-06T08:09:22;34.20;;;1.13;;
12715;SDS011;6422;49.938;9.124;2022-07-06T08:11:47;37.03;;;1.30;;
12715;SDS011;6422;49.938;9.124;2022-07-06T08:14:12;34.75;;;1.30;;
12715;SDS011;6422;49.938;9.124;2022-07-06T08:16:39;38.77;;;1.50;;
12715;SDS011;6422;49.938;9.124;2022-07-06T08:19:04;37.50;;;1.92;;
12715;SDS011;6422;49.938;9.124;2022-07-06T08:21:29;35.45;;;1.50;;
12715;SDS011;6422;49.938;9.124;2022-07-06T08:23:54;38.45;;;1.48;;
12715;SDS011;6422;49.938;9.124;2022-07-06T08:26:20;35.33;;;1.50;;
12715;SDS011;6422;49.938;9.124;2022-07-06T08:28:45;36.90;;;1.30;;
12715;SDS011;6422;49.938;9.124;2022-07-06T08:31:10;35.47;;;1.60;;
12715;SDS011;6422;49.938;9.124;2022-07-06T08:33:35;38.50;;;1.77;;
12715;SDS011;6422;49.938;9.124;2022-07-06T08:36:01;35.07;;;1.23;;
12715;SDS011;6422;49.938;9.124;2022-07-06T08:38:26;34.30;;;1.33;;
12715;SDS011;6422;49.938;9.124;2022-07-06T08:40:51;38.40;;;1.60;;
12715;SDS011;6422;49.938;9.124;2022-07-06T08:43:16;34.10;;;1.30;;
12715;SDS011;6422;49.938;9.124;2022-07-06T08:45:42;35.47;;;1.80;;
12715;SDS011;6422;49.938;9.124;2022-07-06T08:48:10;35.20;;;1.30;;
12715;SDS011;6422;49.938;9.124;2022-07-06T08:50:35;38.50;;;1.33;;
12715;SDS011;6422;49.938;9.124;2022-07-06T08:53:01;36.03;;;1.30;;
12715;SDS011;6422;49.938;9.124;2022-07-06T08:55:27;35.40;;;1.60;;
12715;SDS011;6422;49.938;9.124;2022-07-06T08:57:52;47.87;;;1.40;;
12715;SDS011;6422;49.938;9.124;2022-07-06T09:00:19;38.03;;;2.00;;
12715;SDS011;6422;49.938;9.124;2022-07-06T09:02:44;37.00;;;1.60;;
12715;SDS011;6422;49.938;9.124;2022-07-06T09:05:09;35.30;;;1.50;;
12715;SDS011;6422;49.938;9.124;2022-07-06T09:07:36;39.70;;;1.80;;
12715;SDS011;6422;49.938;9.124;2022-07-06T09:10:01;34.47;;;1.23;;
12715;SDS011;6422;49.938;9.124;2022-07-06T09:12:27;34.57;;;1.30;;
12715;SDS011;6422;49.938;9.124;2022-07-06T09:14:56;35.70;;;1.47;;
12715;SDS011;6422;49.938;9.124;2022-07-06T09:17:24;36.73;;;1.60;;
12715;SDS011;6422;49.938;9.124;2022-07-06T09:19:50;37.57;;;1.47;;
12715;SDS011;6422;49.938;9.124;2022-07-06T09:22:27;36.90;;;1.55;;
12715;SDS011;6422;49.938;9.124;2022-07-06T09:24:53;35.00;;;1.50;;
12715;SDS011;6422;49.938;9.124;2022-07-06T09:27:18;35.57;;;1.70;;
12715;SDS011;6422;49.938;9.124;2022-07-06T09:29:43;35.20;;;1.40;;
12715;SDS011;6422;49.938;9.124;2022-07-06T09:32:09;36.93;;;1.83;;
12715;SDS011;6422;49.938;9.124;2022-07-06T09:34:41;43.88;;;3.25;;
12715;SDS011;6422;49.938;9.124;2022-07-06T09:37:07;36.13;;;1.60;;
12715;SDS011;6422;49.938;9.124;2022-07-06T09:39:32;34.43;;;1.20;;
12715;SDS011;6422;49.938;9.124;2022-07-06T09:41:58;35.70;;;2.17;;
12715;SDS011;6422;49.938;9.124;2022-07-06T09:44:27;35.73;;;1.90;;
12715;SDS011;6422;49.938;9.124;2022-07-06T09:46:55;35.63;;;1.70;;
12715;SDS011;6422;49.938;9.124;2022-07-06T09:49:21;34.90;;;1.30;;
12715;SDS011;6422;49.938;9.124;2022-07-06T09:51:47;38.33;;;1.60;;
12715;SDS011;6422;49.938;9.124;2022-07-06T09:54:12;37.30;;;1.90;;
12715;SDS011;6422;49.938;9.124;2022-07-06T09:56:38;35.73;;;1.80;;
12715;SDS011;6422;49.938;9.124;2022-07-06T09:59:10;34.90;;;1.70;;
12715;SDS011;6422;49.938;9.124;2022-07-06T10:01:36;34.97;;;1.70;;
12715;SDS011;6422;49.938;9.124;2022-07-06T10:04:02;39.33;;;1.53;;
12715;SDS011;6422;49.938;9.124;2022-07-06T10:06:27;34.47;;;1.30;;
12715;SDS011;6422;49.938;9.124;2022-07-06T10:08:55;37.50;;;1.73;;
12715;SDS011;6422;49.938;9.124;2022-07-06T10:11:22;36.30;;;1.30;;
12715;SDS011;6422;49.938;9.124;2022-07-06T10:13:47;39.87;;;1.63;;
12715;SDS011;6422;49.938;9.124;2022-07-06T10:16:13;36.07;;;1.50;;
12715;SDS011;6422;49.938;9.124;2022-07-06T10:18:39;35.40;;;1.60;;
12715;SDS011;6422;49.938;9.124;2022-07-06T10:21:05;34.90;;;1.50;;
12715;SDS011;6422;49.938;9.124;2022-07-06T10:23:31;35.33;;;1.80;;
12715;SDS011;6422;49.938;9.124;2022-07-06T10:25:56;36.00;;;1.70;;
12715;SDS011;6422;49.938;9.124;2022-07-06T10:28:22;34.90;;;1.53;;
12715;SDS011;6422;49.938;9.124;2022-07-06T10:30:47;34.00;;;1.20;;
12715;SDS011;6422;49.938;9.124;2022-07-06T10:33:13;35.20;;;1.77;;
12715;SDS011;6422;49.938;9.124;2022-07-06T10:35:42;35.20;;;1.60;;
12715;SDS011;6422;49.938;9.124;2022-07-06T10:38:07;34.93;;;1.37;;
12715;SDS011;6422;49.938;9.124;2022-07-06T10:40:34;38.03;;;2.00;;
12715;SDS011;6422;49.938;9.124;2022-07-06T10:43:18;35.47;;;1.50;;
12715;SDS011;6422;49.938;9.124;2022-07-06T10:50:37;35.30;;;1.30;;
12715;SDS011;6422;49.938;9.124;2022-07-06T10:53:02;40.67;;;1.80;;
12715;SDS011;6422;49.938;9.124;2022-07-06T10:55:36;36.73;;;2.00;;
12715;SDS011;6422;49.938;9.124;2022-07-06T10:58:02;35.67;;;1.70;;
12715;SDS011;6422;49.938;9.124;2022-07-06T11:05:58;38.50;;;1.90;;
12715;SDS011;6422;49.938;9.124;2022-07-06T11:08:30;34.60;;;1.40;;
12715;SDS011;6422;49.938;9.124;2022-07-06T11:11:12;39.17;;;2.30;;
12715;SDS011;6422;49.938;9.124;2022-07-06T11:13:54;37.07;;;1.50;;
12715;SDS011;6422;49.938;9.124;2022-07-06T11:16:21;34.37;;;1.30;;
12715;SDS011;6422;49.938;9.124;2022-07-06T11:18:58;37.27;;;2.30;;
12715;SDS011;6422;49.938;9.124;2022-07-06T11:21:32;36.80;;;1.63;;
12715;SDS011;6422;49.938;9.124;2022-07-06T11:23:57;34.50;;;1.20;;
12715;SDS011;6422;49.938;9.124;2022-07-06T11:26:23;35.10;;;1.50;;
12715;SDS011;6422;49.938;9.124;2022-07-06T11:28:48;37.07;;;2.70;;
12715;SDS011;6422;49.938;9.124;2022-07-06T11:31:13;35.07;;;1.43;;
12715;SDS011;6422;49.938;9.124;2022-07-06T11:33:39;45.13;;;1.93;;
12715;SDS011;6422;49.938;9.124;2022-07-06T11:38:39;35.77;;;1.50;;
12715;SDS011;6422;49.938;9.124;2022-07-06T11:41:04;35.60;;;1.93;;
12715;SDS011;6422;49.938;9.124;2022-07-06T11:43:29;34.95;;;1.35;;
12715;SDS011;6422;49.938;9.124;2022-07-06T11:45:54;36.90;;;1.75;;
12715;SDS011;6422;49.938;9.124;2022-07-06T11:48:19;34.57;;;1.50;;
12715;SDS011;6422;49.938;9.124;2022-07-06T11:50:56;34.75;;;1.20;;
12715;SDS011;6422;49.938;9.124;2022-07-06T11:53:21;35.20;;;1.90;;
12715;SDS011;6422;49.938;9.124;2022-07-06T11:55:46;35.20;;;1.57;;
12715;SDS011;6422;49.938;9.124;2022-07-06T11:58:12;34.80;;;1.53;;
12715;SDS011;6422;49.938;9.124;2022-07-06T12:00:37;35.60;;;1.80;;
12715;SDS011;6422;49.938;9.124;2022-07-06T12:03:02;37.20;;;1.67;;
12715;SDS011;6422;49.938;9.124;2022-07-06T12:05:31;35.27;;;1.50;;
12715;SDS011;6422;49.938;9.124;2022-07-06T12:08:05;37.10;;;1.80;;
12715;SDS011;6422;49.938;9.124;2022-07-06T12:10:33;34.27;;;1.40;;
12715;SDS011;6422;49.938;9.124;2022-07-06T12:13:03;35.20;;;1.60;;
12715;SDS011;6422;49.938;9.124;2022-07-06T12:15:29;35.20;;;1.57;;
12715;SDS011;6422;49.938;9.124;2022-07-06T12:17:54;34.53;;;1.50;;
12715;SDS011;6422;49.938;9.124;2022-07-06T12:20:19;37.10;;;1.83;;
12715;SDS011;6422;49.938;9.124;2022-07-06T12:22:44;35.05;;;1.30;;
12715;SDS011;6422;49.938;9.124;2022-07-06T12:25:09;35.13;;;1.30;;
12715;SDS011;6422;49.938;9.124;2022-07-06T12:27:35;34.10;;;1.20;;
12715;SDS011;6422;49.938;9.124;2022-07-06T12:30:10;35.07;;;1.43;;
12715;SDS011;6422;49.938;9.124;2022-07-06T12:32:35;34.10;;;1.20;;
12715;SDS011;6422;49.938;9.124;2022-07-06T12:35:04;36.60;;;1.60;;
12715;SDS011;6422;49.938;9.124;2022-07-06T12:37:30;38.47;;;1.80;;
12715;SDS011;6422;49.938;9.124;2022-07-06T12:39:55;35.30;;;1.90;;
12715;SDS011;6422;49.938;9.124;2022-07-06T12:42:20;34.93;;;1.87;;
12715;SDS011;6422;49.938;9.124;2022-07-06T12:44:46;34.57;;;1.50;;
12715;SDS011;6422;49.938;9.124;2022-07-06T12:47:12;38.70;;;1.50;;
12715;SDS011;6422;49.938;9.124;2022-07-06T12:49:38;34.90;;;1.30;;
12715;SDS011;6422;49.938;9.124;2022-07-06T12:54:33;34.70;;;1.23;;
12715;SDS011;6422;49.938;9.124;2022-07-06T12:57:00;34.60;;;1.50;;
12715;SDS011;6422;49.938;9.124;2022-07-06T12:59:25;41.37;;;1.80;;
12715;SDS011;6422;49.938;9.124;2022-07-06T13:01:51;34.40;;;1.40;;
12715;SDS011;6422;49.938;9.124;2022-07-06T13:04:20;33.93;;;1.10;;
12715;SDS011;6422;49.938;9.124;2022-07-06T13:06:46;34.20;;;1.20;;
12715;SDS011;6422;49.938;9.124;2022-07-06T13:09:11;35.70;;;1.87;;
12715;SDS011;6422;49.938;9.124;2022-07-06T13:11:38;41.13;;;1.47;;
12715;SDS011;6422;49.938;9.124;2022-07-06T13:14:03;34.30;;;1.27;;
12715;SDS011;6422;49.938;9.124;2022-07-06T13:16:28;34.27;;;1.17;;
12715;SDS011;6422;49.938;9.124;2022-07-06T13:18:59;34.37;;;1.30;;
12715;SDS011;6422;49.938;9.124;2022-07-06T13:21:24;34.47;;;1.48;;
12715;SDS011;6422;49.938;9.124;2022-07-06T13:23:49;36.00;;;2.20;;
12715;SDS011;6422;49.938;9.124;2022-07-06T13:26:14;37.90;;;2.30;;
12715;SDS011;6422;49.938;9.124;2022-07-06T13:28:39;37.47;;;1.90;;
12715;SDS011;6422;49.938;9.124;2022-07-06T13:31:05;33.97;;;1.10;;
12715;SDS011;6422;49.938;9.124;2022-07-06T13:33:30;37.17;;;2.07;;
12715;SDS011;6422;49.938;9.124;2022-07-06T13:35:55;33.95;;;1.13;;
12715;SDS011;6422;49.938;9.124;2022-07-06T13:38:20;35.27;;;1.50;;
12715;SDS011;6422;49.938;9.124;2022-07-06T13:40:45;38.20;;;1.67;;
12715;SDS011;6422;49.938;9.124;2022-07-06T13:43:10;36.77;;;1.40;;
12715;SDS011;6422;49.938;9.124;2022-07-06T13:45:36;34.73;;;1.33;;
12715;SDS011;6422;49.938;9.124;2022-07-06T13:48:01;40.87;;;1.60;;
12715;SDS011;6422;49.938;9.124;2022-07-06T13:50:26;35.27;;;1.30;;
12715;SDS011;6422;49.938;9.124;2022-07-06T13:52:52;35.63;;;2.33;;
12715;SDS011;6422;49.938;9.124;2022-07-06T13:55:17;37.17;;;1.42;;
12715;SDS011;6422;49.938;9.124;2022-07-06T13:57:43;34.53;;;1.20;;
12715;SDS011;6422;49.938;9.124;2022-07-06T14:00:08;34.67;;;1.53;;
12715;SDS011;6422;49.938;9.124;2022-07-06T14:02:33;36.67;;;1.70;;
12715;SDS011;6422;49.938;9.124;2022-07-06T14:04:58;34.70;;;1.27;;
12715;SDS011;6422;49.938;9.124;2022-07-06T14:07:24;34.35;;;1.27;;
12715;SDS011;6422;49.938;9.124;2022-07-06T14:09:49;34.70;;;1.57;;
12715;SDS011;6422;49.938;9.124;2022-07-06T14:12:16;35.23;;;1.50;;
12715;SDS011;6422;49.938;9.124;2022-07-06T14:14:41;34.70;;;1.50;;
12715;SDS011;6422;49.938;9.124;2022-07-06T14:17:07;35.05;;;1.58;;
12715;SDS011;6422;49.938;9.124;2022-07-06T14:19:32;38.65;;;1.85;;
12715;SDS011;6422;49.938;9.124;2022-07-06T14:21:57;34.70;;;1.30;;
12715;SDS011;6422;49.938;9.124;2022-07-06T14:24:22;35.07;;;1.40;;
12715;SDS011;6422;49.938;9.124;2022-07-06T14:26:48;36.75;;;1.60;;
12715;SDS011;6422;49.938;9.124;2022-07-06T14:29:13;34.20;;;1.20;;
12715;SDS011;6422;49.938;9.124;2022-07-06T14:31:38;35.47;;;1.10;;
12715;SDS011;6422;49.938;9.124;2022-07-06T14:34:03;35.20;;;1.45;;
12715;SDS011;6422;49.938;9.124;2022-07-06T14:36:29;38.37;;;1.50;;
12715;SDS011;6422;49.938;9.124;2022-07-06T14:38:54;35.27;;;1.70;;
12715;SDS011;6422;49.938;9.124;2022-07-06T14:41:19;35.10;;;1.52;;
12715;SDS011;6422;49.938;9.124;2022-07-06T14:43:44;36.90;;;1.40;;
12715;SDS011;6422;49.938;9.124;2022-07-06T14:46:09;34.40;;;1.50;;
12715;SDS011;6422;49.938;9.124;2022-07-06T14:48:35;34.67;;;1.30;;
12715;SDS011;6422;49.938;9.124;2022-07-06T14:51:00;35.27;;;1.57;;
12715;SDS011;6422;49.938;9.124;2022-07-06T14:53:25;34.15;;;1.20;;
12715;SDS011;6422;49.938;9.124;2022-07-06T14:55:50;34.80;;;1.47;;